sensor_id;sensor_type;location;lat;lon;timestamp;P1;durP1;ratioP1;P2;durP2;ratioP2
12597;SDS011;6364;53.590;9.956;2022-11-13T00:00:53;31.30;;;18.88;;
12597;SDS011;6364;53.590;9.956;2022-11-13T00:03:18;32.20;;;19.17;;
12597;SDS011;6364;53.590;9.956;2022-11-13T00:05:44;34.38;;;19.80;;
12597;SDS011;6364;53.590;9.956;2022-11-13T00:08:09;31.50;;;19.77;;
12597;SDS011;6364;53.590;9.956;2022-11-13T00:10:35;34.33;;;18.92;;
12597;SDS011;6364;53.590;9.956;2022-11-13T00:13:00;27.83;;;18.80;;
12597;SDS011;6364;53.590;9.956;2022-11-13T00:15:25;31.35;;;19.60;;
12597;SDS011;6364;53.590;9.956;2022-11-13T00:17:51;32.05;;;19.25;;
12597;SDS011;6364;53.590;9.956;2022-11-13T00:20:17;30.83;;;19.73;;
12597;SDS011;6364;53.590;9.956;2022-11-13T00:22:42;32.33;;;18.88;;
12597;SDS011;6364;53.590;9.956;2022-11-13T00:25:08;31.75;;;19.33;;
12597;SDS011;6364;53.590;9.956;2022-11-13T00:27:33;35.30;;;19.88;;
12597;SDS011;6364;53.590;9.956;2022-11-13T00:29:58;34.42;;;20.48;;
12597;SDS011;6364;53.590;9.956;2022-11-13T00:32:24;32.25;;;20.08;;
12597;SDS011;6364;53.590;9.956;2022-11-13T00:34:50;29.30;;;19.50;;
12597;SDS011;6364;53.590;9.956;2022-11-13T00:37:16;35.00;;;20.35;;
12597;SDS011;6364;53.590;9.956;2022-11-13T00:39:41;34.15;;;19.85;;
12597;SDS011;6364;53.590;9.956;2022-11-13T00:42:06;28.77;;;18.75;;
12597;SDS011;6364;53.590;9.956;2022-11-13T00:44:32;32.83;;;20.15;;
12597;SDS011;6364;53.590;9.956;2022-11-13T00:46:57;30.10;;;19.08;;
12597;SDS011;6364;53.590;9.956;2022-11-13T00:49:22;27.52;;;18.38;;
12597;SDS011;6364;53.590;9.956;2022-11-13T00:51:48;27.55;;;19.05;;
12597;SDS011;6364;53.590;9.956;2022-11-13T00:54:13;32.30;;;20.58;;
12597;SDS011;6364;53.590;9.956;2022-11-13T00:56:38;30.65;;;18.75;;
12597;SDS011;6364;53.590;9.956;2022-11-13T00:59:03;32.15;;;19.80;;
12597;SDS011;6364;53.590;9.956;2022-11-13T01:01:30;34.40;;;19.75;;
12597;SDS011;6364;53.590;9.956;2022-11-13T01:03:55;36.97;;;19.50;;
12597;SDS011;6364;53.590;9.956;2022-11-13T01:06:22;35.60;;;20.00;;
12597;SDS011;6364;53.590;9.956;2022-11-13T01:08:49;31.02;;;19.75;;
12597;SDS011;6364;53.590;9.956;2022-11-13T01:11:19;27.83;;;19.45;;
12597;SDS011;6364;53.590;9.956;2022-11-13T01:13:46;31.95;;;20.23;;
12597;SDS011;6364;53.590;9.956;2022-11-13T01:16:13;37.78;;;20.17;;
12597;SDS011;6364;53.590;9.956;2022-11-13T01:18:39;32.17;;;19.80;;
12597;SDS011;6364;53.590;9.956;2022-11-13T01:21:12;31.48;;;19.30;;
12597;SDS011;6364;53.590;9.956;2022-11-13T01:23:38;30.25;;;19.00;;
12597;SDS011;6364;53.590;9.956;2022-11-13T01:26:05;30.08;;;18.60;;
12597;SDS011;6364;53.590;9.956;2022-11-13T01:28:37;31.63;;;19.02;;
12597;SDS011;6364;53.590;9.956;2022-11-13T01:31:04;29.52;;;18.27;;
12597;SDS011;6364;53.590;9.956;2022-11-13T01:33:30;30.17;;;19.65;;
12597;SDS011;6364;53.590;9.956;2022-11-13T01:36:03;29.85;;;19.77;;
12597;SDS011;6364;53.590;9.956;2022-11-13T01:38:34;29.05;;;18.75;;
12597;SDS011;6364;53.590;9.956;2022-11-13T01:40:59;26.88;;;18.67;;
12597;SDS011;6364;53.590;9.956;2022-11-13T01:43:26;31.45;;;19.15;;
12597;SDS011;6364;53.590;9.956;2022-11-13T01:48:27;31.60;;;20.40;;
12597;SDS011;6364;53.590;9.956;2022-11-13T01:50:58;33.70;;;19.60;;
12597;SDS011;6364;53.590;9.956;2022-11-13T01:53:24;35.63;;;20.75;;
12597;SDS011;6364;53.590;9.956;2022-11-13T01:55:49;30.95;;;18.60;;
12597;SDS011;6364;53.590;9.956;2022-11-13T01:58:15;31.25;;;18.88;;
12597;SDS011;6364;53.590;9.956;2022-11-13T02:00:40;28.77;;;18.50;;
12597;SDS011;6364;53.590;9.956;2022-11-13T02:03:05;35.88;;;19.65;;
12597;SDS011;6364;53.590;9.956;2022-11-13T02:05:31;31.08;;;19.02;;
12597;SDS011;6364;53.590;9.956;2022-11-13T02:07:56;30.23;;;19.38;;
12597;SDS011;6364;53.590;9.956;2022-11-13T02:10:22;30.13;;;18.77;;
12597;SDS011;6364;53.590;9.956;2022-11-13T02:12:48;30.58;;;19.20;;
12597;SDS011;6364;53.590;9.956;2022-11-13T02:15:15;30.25;;;20.02;;
12597;SDS011;6364;53.590;9.956;2022-11-13T02:17:45;34.33;;;20.13;;
12597;SDS011;6364;53.590;9.956;2022-11-13T02:20:12;33.90;;;20.73;;
12597;SDS011;6364;53.590;9.956;2022-11-13T02:22:59;28.60;;;19.25;;
12597;SDS011;6364;53.590;9.956;2022-11-13T02:25:27;30.70;;;19.65;;
12597;SDS011;6364;53.590;9.956;2022-11-13T02:27:54;33.67;;;20.10;;
12597;SDS011;6364;53.590;9.956;2022-11-13T02:30:20;32.25;;;20.63;;
12597;SDS011;6364;53.590;9.956;2022-11-13T02:32:49;33.63;;;20.40;;
12597;SDS011;6364;53.590;9.956;2022-11-13T02:35:17;34.15;;;19.90;;
12597;SDS011;6364;53.590;9.956;2022-11-13T02:37:45;34.00;;;20.42;;
12597;SDS011;6364;53.590;9.956;2022-11-13T02:40:11;34.63;;;21.08;;
12597;SDS011;6364;53.590;9.956;2022-11-13T02:42:37;32.22;;;20.90;;
12597;SDS011;6364;53.590;9.956;2022-11-13T02:45:02;35.22;;;20.90;;
12597;SDS011;6364;53.590;9.956;2022-11-13T02:47:28;35.22;;;21.15;;
12597;SDS011;6364;53.590;9.956;2022-11-13T02:49:53;33.63;;;20.27;;
12597;SDS011;6364;53.590;9.956;2022-11-13T02:52:19;36.15;;;20.80;;
12597;SDS011;6364;53.590;9.956;2022-11-13T02:54:44;42.80;;;24.45;;
12597;SDS011;6364;53.590;9.956;2022-11-13T02:57:09;34.00;;;20.70;;
12597;SDS011;6364;53.590;9.956;2022-11-13T02:59:35;35.90;;;21.38;;
12597;SDS011;6364;53.590;9.956;2022-11-13T03:02:00;35.10;;;21.95;;
12597;SDS011;6364;53.590;9.956;2022-11-13T03:04:25;35.88;;;22.15;;
12597;SDS011;6364;53.590;9.956;2022-11-13T03:06:51;33.40;;;21.50;;
12597;SDS011;6364;53.590;9.956;2022-11-13T03:09:16;34.53;;;21.80;;
12597;SDS011;6364;53.590;9.956;2022-11-13T03:11:42;39.05;;;21.63;;
12597;SDS011;6364;53.590;9.956;2022-11-13T03:14:07;41.00;;;24.08;;
12597;SDS011;6364;53.590;9.956;2022-11-13T03:16:33;39.72;;;23.95;;
12597;SDS011;6364;53.590;9.956;2022-11-13T03:18:58;38.05;;;23.27;;
12597;SDS011;6364;53.590;9.956;2022-11-13T03:21:23;38.13;;;22.48;;
12597;SDS011;6364;53.590;9.956;2022-11-13T03:23:49;40.15;;;24.65;;
12597;SDS011;6364;53.590;9.956;2022-11-13T03:26:15;40.50;;;23.08;;
12597;SDS011;6364;53.590;9.956;2022-11-13T03:28:41;36.97;;;22.58;;
12597;SDS011;6364;53.590;9.956;2022-11-13T03:31:06;44.30;;;24.05;;
12597;SDS011;6364;53.590;9.956;2022-11-13T03:33:32;38.75;;;23.25;;
12597;SDS011;6364;53.590;9.956;2022-11-13T03:35:57;41.22;;;22.70;;
12597;SDS011;6364;53.590;9.956;2022-11-13T03:38:23;41.75;;;23.15;;
12597;SDS011;6364;53.590;9.956;2022-11-13T03:40:48;38.92;;;23.35;;
12597;SDS011;6364;53.590;9.956;2022-11-13T03:43:14;43.22;;;23.23;;
12597;SDS011;6364;53.590;9.956;2022-11-13T03:45:39;43.10;;;23.73;;
12597;SDS011;6364;53.590;9.956;2022-11-13T03:48:05;44.55;;;24.83;;
12597;SDS011;6364;53.590;9.956;2022-11-13T03:50:30;37.38;;;23.48;;
12597;SDS011;6364;53.590;9.956;2022-11-13T03:52:55;40.88;;;24.13;;
12597;SDS011;6364;53.590;9.956;2022-11-13T03:55:21;43.22;;;24.45;;
12597;SDS011;6364;53.590;9.956;2022-11-13T03:57:46;41.28;;;23.77;;
12597;SDS011;6364;53.590;9.956;2022-11-13T04:00:12;43.10;;;24.38;;
12597;SDS011;6364;53.590;9.956;2022-11-13T04:02:38;42.42;;;24.77;;
12597;SDS011;6364;53.590;9.956;2022-11-13T04:05:03;48.50;;;24.27;;
12597;SDS011;6364;53.590;9.956;2022-11-13T04:07:29;43.35;;;24.92;;
12597;SDS011;6364;53.590;9.956;2022-11-13T04:09:54;44.03;;;25.10;;
12597;SDS011;6364;53.590;9.956;2022-11-13T04:12:19;42.13;;;25.77;;
12597;SDS011;6364;53.590;9.956;2022-11-13T04:14:45;43.88;;;25.40;;
12597;SDS011;6364;53.590;9.956;2022-11-13T04:17:10;42.85;;;25.90;;
12597;SDS011;6364;53.590;9.956;2022-11-13T04:19:35;44.70;;;25.90;;
12597;SDS011;6364;53.590;9.956;2022-11-13T04:22:00;42.15;;;25.80;;
12597;SDS011;6364;53.590;9.956;2022-11-13T04:24:26;42.85;;;25.10;;
12597;SDS011;6364;53.590;9.956;2022-11-13T04:26:51;44.45;;;24.60;;
12597;SDS011;6364;53.590;9.956;2022-11-13T04:29:17;44.92;;;25.65;;
12597;SDS011;6364;53.590;9.956;2022-11-13T04:31:42;44.38;;;25.70;;
12597;SDS011;6364;53.590;9.956;2022-11-13T04:34:07;41.28;;;24.75;;
12597;SDS011;6364;53.590;9.956;2022-11-13T04:36:32;46.35;;;25.83;;
12597;SDS011;6364;53.590;9.956;2022-11-13T04:38:58;43.17;;;24.83;;
12597;SDS011;6364;53.590;9.956;2022-11-13T04:41:23;46.13;;;24.95;;
12597;SDS011;6364;53.590;9.956;2022-11-13T04:44:07;40.45;;;23.52;;
12597;SDS011;6364;53.590;9.956;2022-11-13T04:46:32;44.50;;;24.63;;
12597;SDS011;6364;53.590;9.956;2022-11-13T04:48:57;41.63;;;25.30;;
12597;SDS011;6364;53.590;9.956;2022-11-13T04:51:23;43.85;;;24.65;;
12597;SDS011;6364;53.590;9.956;2022-11-13T04:53:48;41.15;;;24.40;;
12597;SDS011;6364;53.590;9.956;2022-11-13T04:56:13;44.50;;;23.88;;
12597;SDS011;6364;53.590;9.956;2022-11-13T04:58:39;41.72;;;23.40;;
12597;SDS011;6364;53.590;9.956;2022-11-13T05:01:04;44.50;;;24.35;;
12597;SDS011;6364;53.590;9.956;2022-11-13T05:03:29;41.65;;;24.27;;
12597;SDS011;6364;53.590;9.956;2022-11-13T05:06:04;44.85;;;25.20;;
12597;SDS011;6364;53.590;9.956;2022-11-13T05:08:31;45.35;;;23.60;;
12597;SDS011;6364;53.590;9.956;2022-11-13T05:10:57;48.00;;;25.27;;
12597;SDS011;6364;53.590;9.956;2022-11-13T05:13:22;39.13;;;23.98;;
12597;SDS011;6364;53.590;9.956;2022-11-13T05:15:47;41.80;;;25.55;;
12597;SDS011;6364;53.590;9.956;2022-11-13T05:18:13;42.40;;;24.13;;
12597;SDS011;6364;53.590;9.956;2022-11-13T05:20:38;42.95;;;25.30;;
12597;SDS011;6364;53.590;9.956;2022-11-13T05:23:04;45.92;;;25.02;;
12597;SDS011;6364;53.590;9.956;2022-11-13T05:25:29;42.97;;;24.02;;
12597;SDS011;6364;53.590;9.956;2022-11-13T05:27:56;44.88;;;24.83;;
12597;SDS011;6364;53.590;9.956;2022-11-13T05:30:21;44.85;;;24.90;;
12597;SDS011;6364;53.590;9.956;2022-11-13T05:32:47;49.45;;;25.33;;
12597;SDS011;6364;53.590;9.956;2022-11-13T05:35:12;44.88;;;25.00;;
12597;SDS011;6364;53.590;9.956;2022-11-13T05:37:37;44.08;;;25.10;;
12597;SDS011;6364;53.590;9.956;2022-11-13T05:40:03;44.53;;;24.98;;
12597;SDS011;6364;53.590;9.956;2022-11-13T05:42:29;44.88;;;25.27;;
12597;SDS011;6364;53.590;9.956;2022-11-13T05:44:54;48.72;;;25.98;;
12597;SDS011;6364;53.590;9.956;2022-11-13T05:47:19;44.25;;;24.27;;
12597;SDS011;6364;53.590;9.956;2022-11-13T05:49:44;43.40;;;24.77;;
12597;SDS011;6364;53.590;9.956;2022-11-13T05:52:10;43.95;;;24.30;;
12597;SDS011;6364;53.590;9.956;2022-11-13T05:54:35;47.03;;;25.75;;
12597;SDS011;6364;53.590;9.956;2022-11-13T05:57:01;44.38;;;24.73;;
12597;SDS011;6364;53.590;9.956;2022-11-13T05:59:26;51.22;;;25.60;;
12597;SDS011;6364;53.590;9.956;2022-11-13T06:01:51;46.25;;;25.67;;
12597;SDS011;6364;53.590;9.956;2022-11-13T06:04:16;44.33;;;25.52;;
12597;SDS011;6364;53.590;9.956;2022-11-13T06:06:42;44.67;;;24.95;;
12597;SDS011;6364;53.590;9.956;2022-11-13T06:09:08;49.03;;;26.13;;
12597;SDS011;6364;53.590;9.956;2022-11-13T06:11:34;48.63;;;26.38;;
12597;SDS011;6364;53.590;9.956;2022-11-13T06:13:59;43.58;;;24.65;;
12597;SDS011;6364;53.590;9.956;2022-11-13T06:16:26;48.08;;;25.63;;
12597;SDS011;6364;53.590;9.956;2022-11-13T06:18:54;49.47;;;25.85;;
12597;SDS011;6364;53.590;9.956;2022-11-13T06:21:22;50.33;;;25.33;;
12597;SDS011;6364;53.590;9.956;2022-11-13T06:23:48;46.40;;;26.00;;
12597;SDS011;6364;53.590;9.956;2022-11-13T06:26:14;46.78;;;25.42;;
12597;SDS011;6364;53.590;9.956;2022-11-13T06:28:42;46.40;;;25.75;;
12597;SDS011;6364;53.590;9.956;2022-11-13T06:31:10;48.03;;;25.98;;
12597;SDS011;6364;53.590;9.956;2022-11-13T06:33:37;47.80;;;25.67;;
12597;SDS011;6364;53.590;9.956;2022-11-13T06:36:04;43.95;;;25.85;;
12597;SDS011;6364;53.590;9.956;2022-11-13T06:38:31;52.67;;;26.05;;
12597;SDS011;6364;53.590;9.956;2022-11-13T06:40:57;47.10;;;26.55;;
12597;SDS011;6364;53.590;9.956;2022-11-13T06:43:22;53.42;;;27.52;;
12597;SDS011;6364;53.590;9.956;2022-11-13T06:45:48;49.58;;;25.65;;
12597;SDS011;6364;53.590;9.956;2022-11-13T06:48:13;46.42;;;26.15;;
12597;SDS011;6364;53.590;9.956;2022-11-13T06:50:38;55.50;;;26.90;;
12597;SDS011;6364;53.590;9.956;2022-11-13T06:53:04;43.13;;;24.95;;
12597;SDS011;6364;53.590;9.956;2022-11-13T06:55:29;46.05;;;26.52;;
12597;SDS011;6364;53.590;9.956;2022-11-13T06:57:54;44.55;;;25.88;;
12597;SDS011;6364;53.590;9.956;2022-11-13T07:00:20;51.67;;;26.27;;
12597;SDS011;6364;53.590;9.956;2022-11-13T07:02:47;48.38;;;25.70;;
12597;SDS011;6364;53.590;9.956;2022-11-13T07:05:14;47.35;;;25.13;;
12597;SDS011;6364;53.590;9.956;2022-11-13T07:07:39;47.25;;;26.10;;
12597;SDS011;6364;53.590;9.956;2022-11-13T07:10:04;48.58;;;26.25;;
12597;SDS011;6364;53.590;9.956;2022-11-13T07:12:30;50.55;;;26.75;;
12597;SDS011;6364;53.590;9.956;2022-11-13T07:14:55;46.85;;;25.35;;
12597;SDS011;6364;53.590;9.956;2022-11-13T07:17:21;49.08;;;25.77;;
12597;SDS011;6364;53.590;9.956;2022-11-13T07:19:46;46.42;;;26.25;;
12597;SDS011;6364;53.590;9.956;2022-11-13T07:22:11;44.78;;;25.48;;
12597;SDS011;6364;53.590;9.956;2022-11-13T07:24:37;51.60;;;27.50;;
12597;SDS011;6364;53.590;9.956;2022-11-13T07:27:02;49.53;;;26.65;;
12597;SDS011;6364;53.590;9.956;2022-11-13T07:29:28;53.05;;;25.85;;
12597;SDS011;6364;53.590;9.956;2022-11-13T07:31:53;46.47;;;26.50;;
12597;SDS011;6364;53.590;9.956;2022-11-13T07:34:18;49.20;;;27.05;;
12597;SDS011;6364;53.590;9.956;2022-11-13T07:36:44;51.92;;;26.50;;
12597;SDS011;6364;53.590;9.956;2022-11-13T07:39:09;47.65;;;25.45;;
12597;SDS011;6364;53.590;9.956;2022-11-13T07:41:34;44.03;;;26.23;;
12597;SDS011;6364;53.590;9.956;2022-11-13T07:44:00;49.65;;;25.55;;
12597;SDS011;6364;53.590;9.956;2022-11-13T07:46:25;46.33;;;25.70;;
12597;SDS011;6364;53.590;9.956;2022-11-13T07:48:50;50.08;;;26.98;;
12597;SDS011;6364;53.590;9.956;2022-11-13T07:51:16;53.58;;;28.05;;
12597;SDS011;6364;53.590;9.956;2022-11-13T07:53:41;48.92;;;26.38;;
12597;SDS011;6364;53.590;9.956;2022-11-13T07:56:06;46.83;;;26.65;;
12597;SDS011;6364;53.590;9.956;2022-11-13T07:58:32;49.25;;;25.98;;
12597;SDS011;6364;53.590;9.956;2022-11-13T08:01:01;48.90;;;26.92;;
12597;SDS011;6364;53.590;9.956;2022-11-13T08:03:28;47.72;;;25.52;;
12597;SDS011;6364;53.590;9.956;2022-11-13T08:05:58;48.65;;;25.90;;
12597;SDS011;6364;53.590;9.956;2022-11-13T08:08:24;51.25;;;26.33;;
12597;SDS011;6364;53.590;9.956;2022-11-13T08:10:49;50.47;;;25.70;;
12597;SDS011;6364;53.590;9.956;2022-11-13T08:13:15;48.63;;;24.98;;
12597;SDS011;6364;53.590;9.956;2022-11-13T08:15:40;50.15;;;26.27;;
12597;SDS011;6364;53.590;9.956;2022-11-13T08:18:05;48.85;;;25.67;;
12597;SDS011;6364;53.590;9.956;2022-11-13T08:20:31;49.10;;;24.85;;
12597;SDS011;6364;53.590;9.956;2022-11-13T08:22:57;48.80;;;26.92;;
12597;SDS011;6364;53.590;9.956;2022-11-13T08:25:24;50.80;;;25.77;;
12597;SDS011;6364;53.590;9.956;2022-11-13T08:27:50;50.25;;;26.25;;
12597;SDS011;6364;53.590;9.956;2022-11-13T08:30:16;54.40;;;27.27;;
12597;SDS011;6364;53.590;9.956;2022-11-13T08:32:43;52.08;;;26.85;;
12597;SDS011;6364;53.590;9.956;2022-11-13T08:35:08;54.38;;;26.73;;
12597;SDS011;6364;53.590;9.956;2022-11-13T08:37:33;47.85;;;25.80;;
12597;SDS011;6364;53.590;9.956;2022-11-13T08:39:59;55.75;;;27.40;;
12597;SDS011;6364;53.590;9.956;2022-11-13T08:42:24;52.17;;;26.95;;
12597;SDS011;6364;53.590;9.956;2022-11-13T08:44:50;53.80;;;27.90;;
12597;SDS011;6364;53.590;9.956;2022-11-13T08:47:15;53.75;;;26.67;;
12597;SDS011;6364;53.590;9.956;2022-11-13T08:49:40;51.45;;;25.02;;
12597;SDS011;6364;53.590;9.956;2022-11-13T08:52:06;51.08;;;26.17;;
12597;SDS011;6364;53.590;9.956;2022-11-13T08:54:31;54.58;;;26.20;;
12597;SDS011;6364;53.590;9.956;2022-11-13T08:56:56;54.45;;;26.45;;
12597;SDS011;6364;53.590;9.956;2022-11-13T08:59:22;53.88;;;25.95;;
12597;SDS011;6364;53.590;9.956;2022-11-13T09:01:47;50.83;;;25.75;;
12597;SDS011;6364;53.590;9.956;2022-11-13T09:04:13;52.38;;;24.52;;
12597;SDS011;6364;53.590;9.956;2022-11-13T09:06:38;51.53;;;25.85;;
12597;SDS011;6364;53.590;9.956;2022-11-13T09:09:04;54.10;;;26.60;;
12597;SDS011;6364;53.590;9.956;2022-11-13T09:11:30;57.67;;;25.58;;
12597;SDS011;6364;53.590;9.956;2022-11-13T09:13:56;55.60;;;25.88;;
12597;SDS011;6364;53.590;9.956;2022-11-13T09:16:21;53.85;;;25.23;;
12597;SDS011;6364;53.590;9.956;2022-11-13T09:18:50;55.65;;;26.70;;
12597;SDS011;6364;53.590;9.956;2022-11-13T09:21:15;55.08;;;25.25;;
12597;SDS011;6364;53.590;9.956;2022-11-13T09:23:41;52.80;;;25.70;;
12597;SDS011;6364;53.590;9.956;2022-11-13T09:26:06;49.70;;;25.27;;
12597;SDS011;6364;53.590;9.956;2022-11-13T09:28:32;57.08;;;25.52;;
12597;SDS011;6364;53.590;9.956;2022-11-13T09:30:57;55.53;;;26.33;;
12597;SDS011;6364;53.590;9.956;2022-11-13T09:33:23;56.85;;;27.00;;
12597;SDS011;6364;53.590;9.956;2022-11-13T09:35:48;55.80;;;27.27;;
12597;SDS011;6364;53.590;9.956;2022-11-13T09:38:14;54.95;;;25.80;;
12597;SDS011;6364;53.590;9.956;2022-11-13T09:43:30;47.28;;;23.95;;
12597;SDS011;6364;53.590;9.956;2022-11-13T09:46:00;48.78;;;23.48;;
12597;SDS011;6364;53.590;9.956;2022-11-13T09:50:57;49.08;;;25.15;;
12597;SDS011;6364;53.590;9.956;2022-11-13T09:53:23;47.03;;;23.23;;
12597;SDS011;6364;53.590;9.956;2022-11-13T10:01:16;45.55;;;22.88;;
12597;SDS011;6364;53.590;9.956;2022-11-13T10:04:04;45.75;;;24.73;;
12597;SDS011;6364;53.590;9.956;2022-11-13T10:09:12;41.33;;;22.65;;
12597;SDS011;6364;53.590;9.956;2022-11-13T10:16:52;42.78;;;22.45;;
12597;SDS011;6364;53.590;9.956;2022-11-13T10:19:25;39.72;;;23.20;;
12597;SDS011;6364;53.590;9.956;2022-11-13T10:22:02;45.55;;;23.60;;
12597;SDS011;6364;53.590;9.956;2022-11-13T10:26:57;39.95;;;22.92;;
12597;SDS011;6364;53.590;9.956;2022-11-13T10:29:23;41.17;;;22.40;;
12597;SDS011;6364;53.590;9.956;2022-11-13T10:31:51;41.78;;;22.50;;
12597;SDS011;6364;53.590;9.956;2022-11-13T10:34:17;38.05;;;22.75;;
12597;SDS011;6364;53.590;9.956;2022-11-13T10:42:23;35.75;;;20.38;;
12597;SDS011;6364;53.590;9.956;2022-11-13T10:44:53;39.55;;;21.98;;
12597;SDS011;6364;53.590;9.956;2022-11-13T10:47:22;41.00;;;21.98;;
12597;SDS011;6364;53.590;9.956;2022-11-13T10:49:48;32.65;;;20.33;;
12597;SDS011;6364;53.590;9.956;2022-11-13T10:52:16;33.97;;;20.67;;
12597;SDS011;6364;53.590;9.956;2022-11-13T10:54:45;34.80;;;21.15;;
12597;SDS011;6364;53.590;9.956;2022-11-13T11:04:35;37.53;;;21.83;;
12597;SDS011;6364;53.590;9.956;2022-11-13T11:07:17;36.72;;;21.35;;
12597;SDS011;6364;53.590;9.956;2022-11-13T11:09:44;36.95;;;20.85;;
12597;SDS011;6364;53.590;9.956;2022-11-13T11:12:14;42.80;;;23.65;;
12597;SDS011;6364;53.590;9.956;2022-11-13T11:31:18;35.30;;;20.52;;
12597;SDS011;6364;53.590;9.956;2022-11-13T11:34:03;39.05;;;21.42;;
12597;SDS011;6364;53.590;9.956;2022-11-13T11:36:45;36.53;;;21.33;;
12597;SDS011;6364;53.590;9.956;2022-11-13T11:39:34;40.42;;;22.83;;
12597;SDS011;6364;53.590;9.956;2022-11-13T11:45:11;41.55;;;21.35;;
12597;SDS011;6364;53.590;9.956;2022-11-13T11:47:40;36.72;;;20.92;;
12597;SDS011;6364;53.590;9.956;2022-11-13T11:50:16;36.38;;;21.10;;
12597;SDS011;6364;53.590;9.956;2022-11-13T12:01:12;36.30;;;19.35;;
12597;SDS011;6364;53.590;9.956;2022-11-13T12:03:59;36.33;;;20.08;;
12597;SDS011;6364;53.590;9.956;2022-11-13T12:09:36;30.67;;;19.63;;
12597;SDS011;6364;53.590;9.956;2022-11-13T12:12:23;30.85;;;19.27;;
12597;SDS011;6364;53.590;9.956;2022-11-13T12:15:02;30.92;;;18.58;;
12597;SDS011;6364;53.590;9.956;2022-11-13T12:26:03;30.10;;;17.83;;
12597;SDS011;6364;53.590;9.956;2022-11-13T12:36:07;27.98;;;17.30;;
12597;SDS011;6364;53.590;9.956;2022-11-13T12:38:51;26.65;;;17.08;;
12597;SDS011;6364;53.590;9.956;2022-11-13T12:44:27;28.25;;;17.42;;
12597;SDS011;6364;53.590;9.956;2022-11-13T12:46:54;29.35;;;17.10;;
12597;SDS011;6364;53.590;9.956;2022-11-13T12:49:28;33.08;;;18.05;;
12597;SDS011;6364;53.590;9.956;2022-11-13T12:52:00;24.48;;;16.80;;
12597;SDS011;6364;53.590;9.956;2022-11-13T12:54:27;27.42;;;16.98;;
12597;SDS011;6364;53.590;9.956;2022-11-13T12:59:41;25.90;;;17.00;;
12597;SDS011;6364;53.590;9.956;2022-11-13T13:10:09;27.23;;;15.75;;
12597;SDS011;6364;53.590;9.956;2022-11-13T13:12:46;22.83;;;15.98;;
12597;SDS011;6364;53.590;9.956;2022-11-13T13:15:26;26.27;;;17.23;;
12597;SDS011;6364;53.590;9.956;2022-11-13T13:18:01;25.90;;;15.82;;
12597;SDS011;6364;53.590;9.956;2022-11-13T13:20:28;30.27;;;17.17;;
12597;SDS011;6364;53.590;9.956;2022-11-13T13:23:05;22.20;;;14.38;;
12597;SDS011;6364;53.590;9.956;2022-11-13T13:25:32;21.38;;;13.95;;
12597;SDS011;6364;53.590;9.956;2022-11-13T13:27:59;20.98;;;13.68;;
12597;SDS011;6364;53.590;9.956;2022-11-13T13:30:28;21.17;;;14.52;;
12597;SDS011;6364;53.590;9.956;2022-11-13T13:33:19;23.13;;;14.88;;
12597;SDS011;6364;53.590;9.956;2022-11-13T13:35:50;22.80;;;15.93;;
12597;SDS011;6364;53.590;9.956;2022-11-13T13:38:36;22.20;;;14.48;;
12597;SDS011;6364;53.590;9.956;2022-11-13T13:46:37;19.77;;;13.80;;
12597;SDS011;6364;53.590;9.956;2022-11-13T13:49:04;22.95;;;14.80;;
12597;SDS011;6364;53.590;9.956;2022-11-13T13:51:35;23.10;;;14.75;;
12597;SDS011;6364;53.590;9.956;2022-11-13T13:54:07;22.10;;;14.75;;
12597;SDS011;6364;53.590;9.956;2022-11-13T13:56:38;21.95;;;15.50;;
12597;SDS011;6364;53.590;9.956;2022-11-13T13:59:04;21.15;;;14.27;;
12597;SDS011;6364;53.590;9.956;2022-11-13T14:01:31;25.48;;;15.88;;
12597;SDS011;6364;53.590;9.956;2022-11-13T14:06:29;23.83;;;15.27;;
12597;SDS011;6364;53.590;9.956;2022-11-13T14:09:05;22.83;;;14.93;;
12597;SDS011;6364;53.590;9.956;2022-11-13T14:11:31;25.17;;;14.35;;
12597;SDS011;6364;53.590;9.956;2022-11-13T14:14:06;20.15;;;15.00;;
12597;SDS011;6364;53.590;9.956;2022-11-13T14:16:32;21.55;;;15.05;;
12597;SDS011;6364;53.590;9.956;2022-11-13T14:19:02;24.05;;;15.77;;
12597;SDS011;6364;53.590;9.956;2022-11-13T14:21:28;26.10;;;16.30;;
12597;SDS011;6364;53.590;9.956;2022-11-13T14:23:53;25.70;;;16.48;;
12597;SDS011;6364;53.590;9.956;2022-11-13T14:26:19;26.70;;;17.40;;
12597;SDS011;6364;53.590;9.956;2022-11-13T14:28:58;31.50;;;18.30;;
12597;SDS011;6364;53.590;9.956;2022-11-13T14:31:28;31.08;;;17.98;;
12597;SDS011;6364;53.590;9.956;2022-11-13T14:33:55;31.45;;;17.90;;
12597;SDS011;6364;53.590;9.956;2022-11-13T14:36:29;31.10;;;19.92;;
12597;SDS011;6364;53.590;9.956;2022-11-13T14:38:56;29.33;;;20.10;;
12597;SDS011;6364;53.590;9.956;2022-11-13T14:41:36;31.67;;;20.33;;
12597;SDS011;6364;53.590;9.956;2022-11-13T14:44:03;32.88;;;21.20;;
12597;SDS011;6364;53.590;9.956;2022-11-13T14:46:33;33.08;;;20.88;;
12597;SDS011;6364;53.590;9.956;2022-11-13T14:49:00;33.92;;;21.38;;
12597;SDS011;6364;53.590;9.956;2022-11-13T14:51:26;34.17;;;22.48;;
12597;SDS011;6364;53.590;9.956;2022-11-13T14:54:04;33.22;;;21.25;;
12597;SDS011;6364;53.590;9.956;2022-11-13T14:56:31;37.50;;;23.42;;
12597;SDS011;6364;53.590;9.956;2022-11-13T14:59:05;36.30;;;22.58;;
12597;SDS011;6364;53.590;9.956;2022-11-13T15:01:35;38.85;;;23.52;;
12597;SDS011;6364;53.590;9.956;2022-11-13T15:04:00;41.05;;;24.30;;
12597;SDS011;6364;53.590;9.956;2022-11-13T15:06:26;39.60;;;25.13;;
12597;SDS011;6364;53.590;9.956;2022-11-13T15:08:59;37.83;;;24.33;;
12597;SDS011;6364;53.590;9.956;2022-11-13T15:11:25;39.70;;;24.05;;
12597;SDS011;6364;53.590;9.956;2022-11-13T15:13:51;38.00;;;23.73;;
12597;SDS011;6364;53.590;9.956;2022-11-13T15:16:23;37.75;;;23.02;;
12597;SDS011;6364;53.590;9.956;2022-11-13T15:19:03;40.42;;;24.10;;
12597;SDS011;6364;53.590;9.956;2022-11-13T15:21:29;38.75;;;24.42;;
12597;SDS011;6364;53.590;9.956;2022-11-13T15:23:55;37.13;;;22.40;;
12597;SDS011;6364;53.590;9.956;2022-11-13T15:26:21;35.97;;;23.48;;
12597;SDS011;6364;53.590;9.956;2022-11-13T15:28:47;39.42;;;22.33;;
12597;SDS011;6364;53.590;9.956;2022-11-13T15:31:16;39.15;;;22.83;;
12597;SDS011;6364;53.590;9.956;2022-11-13T15:33:53;33.67;;;21.45;;
12597;SDS011;6364;53.590;9.956;2022-11-13T15:36:18;28.88;;;19.00;;
12597;SDS011;6364;53.590;9.956;2022-11-13T15:38:44;29.55;;;17.75;;
12597;SDS011;6364;53.590;9.956;2022-11-13T15:41:13;29.17;;;18.13;;
12597;SDS011;6364;53.590;9.956;2022-11-13T15:43:44;25.45;;;14.88;;
12597;SDS011;6364;53.590;9.956;2022-11-13T15:46:14;22.35;;;13.45;;
12597;SDS011;6364;53.590;9.956;2022-11-13T15:48:41;21.92;;;12.98;;
12597;SDS011;6364;53.590;9.956;2022-11-13T15:51:28;21.13;;;12.13;;
12597;SDS011;6364;53.590;9.956;2022-11-13T15:53:59;19.17;;;12.07;;
12597;SDS011;6364;53.590;9.956;2022-11-13T15:56:27;18.60;;;11.35;;
12597;SDS011;6364;53.590;9.956;2022-11-13T15:58:53;18.45;;;12.20;;
12597;SDS011;6364;53.590;9.956;2022-11-13T16:01:18;19.15;;;11.48;;
12597;SDS011;6364;53.590;9.956;2022-11-13T16:03:43;16.98;;;10.85;;
12597;SDS011;6364;53.590;9.956;2022-11-13T16:06:16;14.35;;;9.88;;
12597;SDS011;6364;53.590;9.956;2022-11-13T16:08:43;14.82;;;9.23;;
12597;SDS011;6364;53.590;9.956;2022-11-13T16:11:12;13.60;;;9.23;;
12597;SDS011;6364;53.590;9.956;2022-11-13T16:13:38;15.52;;;9.05;;
12597;SDS011;6364;53.590;9.956;2022-11-13T16:16:03;14.35;;;9.02;;
12597;SDS011;6364;53.590;9.956;2022-11-13T16:18:29;15.55;;;9.82;;
12597;SDS011;6364;53.590;9.956;2022-11-13T16:20:55;13.85;;;8.52;;
12597;SDS011;6364;53.590;9.956;2022-11-13T16:23:20;12.80;;;9.00;;